Villa General Arias, Argentina
Current Conditions -  °F | °C
As of 4:00 PM on Friday 31 Oct 2014 (Local Time) from SAZM Reporting Station
Broken Clouds Broken Clouds  
Wind Chill: 57°   Ceiling: 10000
Heat Index: 57°   Visibility: 6mi
Dew Point: 37°   Wind: 10mph
Humidity: 48%   Direction: 230°SW
Pressure: 30.06"   Gusts: NA
Location:  38.82°S, 62.1°W
Report Text: SAZM 311900Z 23009KT 9999 FEW025 BKN10014/03 Q1018
Loading
Personal Weather Stations






























Interactive Weather Map
Tropical Storm Tracking
New forecast layout! Learn more

10-Day Weather Forecast

Advertisements
Track Severe Weather on mobile